Skip Navigation LinksHome page > Weather > Current weather Skip Navigation Links

Current Weather

Chicago O'Hare Intl, Chicago

For information only: do not use for flight planning or navigation.
Latest weather
Observation time Friday, January 21, 2022 2:51 PM CST
Local time Friday, January 21, 2022 2:58 PM CST
Flight conditions Visual Meteorological Conditions
Winds
Wind direction South (190°)
Wind speed 12 mph
Visibility 10 mi.
Sky condition
Ceiling unlimited
Cloud layer few clouds 3,500 ft.
Temperature 25°F
Dewpoint 8°F
Altimeter 30.47 in.Hg
Pressure change last 3 hours0.06 in.Hg
Pressure falling more slowly
Derived measurements
Relative humidity 48%
Wind chill 14°F
Density altitude -2255 ft.
Sea-level pressure 30.50 in.Hg
Remarks
Automated weather observing station with precipitation discriminator.
METAR KORD 212051Z 19010KT 10SM FEW035 M04/M13 A3047 RMK AO2 SLP330 T10391133 56021

Settings

Location code

InnerDrive.Weather 4.0.6770.0 Release CLR 4.0.30319.42000
Copyright ©2018 Inner Drive Technology. All rights reserved. Portions Copyright ©1986-2018 David Braverman.

Find weather

Site navigation


Skip Navigation Links

Place info

Page info

PayPal - The safer, easier way to pay online!

Return home.

Copyright ©2022 Inner Drive Technology. Purveyors of fine, hand-crafted computer software. Page printed 2022-01-21T20:58:15 UTC.